Cedars, PA (19423)

8:39 AM EST on February 06, 2016 (GMT -0500)
Rockwell Terrace in Biltmore Estates | | Change Station
CLOSE
Current Station
Personal Weather Station
Location: Skippack, PA
Elevation: 249 ft
Nearby Weather Stations

Elev 249 ft 40.23 °N, 75.39 °W | Updated 25 seconds ago

Mostly Cloudy
Mostly Cloudy
24.1 °F
Feels Like 24 °F
N
0.0
Wind Variable Wind from SSW
Gusts 0.0 mph

Today
High -- | Low -- °F
--% Chance of Precip.
Yesterday
High -- | Low -- °F
Precip. -- in
Pressure 30.44 in
Visibility 9.0 miles
Clouds Clear
Windchill 24 °F
Dew Point 19 °F
Humidity 82%
Rainfall 0.00 in
Snow Depth Not available.
7:05 AM 5:25 PM
Waning Crescent, 5% visible
METAR KPTW 061254Z AUTO 00000KT 9SM CLR M06/M07 A3043 RMK AO2 SLP308 T10561067
Pressure 30.44 in
Visibility 9.0 miles
Clouds Clear
Windchill 24 °F
Dew Point 19 °F
Humidity 82%
Rainfall 0.00 in
Snow Depth Not available.
7:05 AM 5:25 PM
Waning Crescent, 5% visible
METAR KPTW 061254Z AUTO 00000KT 9SM CLR M06/M07 A3043 RMK AO2 SLP308 T10561067

10-Day Weather Forecast

Almanac

Astronomy

Feb. 06, 2016 Rise Set
Actual Time
Civil Twilight
Nautical Twilight
Astronomical Twilight
Moon
Length of Visible Light
Length of Day
Tomorrow will be .
, % of the Moon is Illuminated

Today's Extremes

State Highs State Lows

Community

WunderPhotos

Upload Photos

1,890,971 photos uploaded!

WunderBlog® & News

Nearby

Air Quality

  Air Quality AQ Index Pollutant
Not available.

Snow Depth

Station Depth Elevation

Earthquake Activity

City Distance Mag. Time & Date
Minimum magnitude displayed is 2.5.

Coastal Water Temperatures

Place Temperature

Stations

Nearby Weather Stations

Station Location Temp. Windchill Dew Point Humidity Wind Precip. Elev Updated Type
                   

Watches & Warnings

There are currently no watches in effect.